Time;durP1;ratioP1;P1;durP2;ratioP2;P2;SDS_P1;SDS_P2;PMS_P1;PMS_P2;Temp;Humidity;BMP_temperature;BMP_pressure;BME280_temperature;BME280_humidity;BME280_pressure;Samples;Min_cycle;Max_cycle;Signal;HPM_P1;HPM_P2
2022/01/07 00:00:20;;;;;;;;;3.00;3.00;;;;;21.53;36.90;101446.34;5047740;28;45621;-69
2022/01/07 00:02:48;;;;;;;;;6.00;4.00;;;;;21.76;36.90;101484.59;5050655;28;45552;-69
2022/01/07 00:05:14;;;;;;;;;3.25;3.25;;;;;21.77;37.00;101480.97;5050757;28;45521;-68
2022/01/07 00:07:40;;;;;;;;;3.00;3.00;;;;;21.74;36.91;101476.84;5054771;28;46370;-70
2022/01/07 00:10:08;;;;;;;;;4.00;4.00;;;;;21.76;36.83;101489.91;5057538;28;45339;-69
2022/01/07 00:12:33;;;;;;;;;7.50;4.25;;;;;21.65;36.85;101464.56;5046755;28;45741;-70
2022/01/07 00:14:59;;;;;;;;;4.00;4.00;;;;;21.75;36.57;101478.50;5045872;28;45410;-69
2022/01/07 00:17:25;;;;;;;;;6.75;5.00;;;;;21.74;36.49;101471.53;5030651;28;46916;-69
2022/01/07 00:19:50;;;;;;;;;3.75;3.75;;;;;21.76;36.94;101480.13;5054037;28;45361;-70
2022/01/07 00:22:15;;;;;;;;;4.00;4.00;;;;;21.76;36.90;101479.31;5041258;28;45362;-70
2022/01/07 00:24:41;;;;;;;;;5.00;5.00;;;;;21.74;36.52;101477.66;5052026;28;45302;-69
2022/01/07 00:27:07;;;;;;;;;3.00;3.00;;;;;21.71;36.39;101470.03;5030092;28;47089;-70
2022/01/07 00:29:32;;;;;;;;;4.00;3.00;;;;;21.73;36.22;101470.69;5047043;28;45583;-69
2022/01/07 00:31:59;;;;;;;;;6.75;4.00;;;;;21.72;36.54;101471.72;5047708;28;45568;-69
2022/01/07 00:34:24;;;;;;;;;2.00;2.00;;;;;21.73;36.64;101467.22;5052927;28;46436;-70
2022/01/07 00:36:49;;;;;;;;;2.00;2.00;;;;;21.73;36.69;101461.91;5041258;28;45367;-70
2022/01/07 00:39:15;;;;;;;;;3.75;3.75;;;;;21.72;36.51;101457.63;5047345;28;45581;-69
2022/01/07 00:41:40;;;;;;;;;4.00;4.00;;;;;21.72;36.51;101447.88;5049937;28;45512;-69
2022/01/07 00:44:06;;;;;;;;;3.00;2.00;;;;;21.71;36.42;101455.97;5050876;28;45572;-69
2022/01/07 00:46:32;;;;;;;;;5.75;3.25;;;;;21.71;36.34;101450.66;5055076;28;46238;-69
2022/01/07 00:48:57;;;;;;;;;3.00;3.00;;;;;21.70;36.33;101444.53;5052302;28;45330;-70
2022/01/07 00:51:22;;;;;;;;;4.50;4.50;;;;;21.70;36.25;101444.53;5050361;28;45360;-70
2022/01/07 00:53:48;;;;;;;;;4.00;2.25;;;;;21.71;36.71;101435.59;5048673;28;45314;-69
2022/01/07 00:56:13;;;;;;;;;4.00;3.00;;;;;21.68;36.78;101425.34;5049964;28;46162;-70
2022/01/07 00:58:39;;;;;;;;;4.50;2.50;;;;;21.70;36.60;101430.50;5054088;28;45500;-69
2022/01/07 01:01:04;;;;;;;;;4.00;4.00;;;;;21.62;35.97;101418.88;5052746;28;46858;-70
2022/01/07 01:03:30;;;;;;;;;2.00;2.00;;;;;21.69;36.09;101427.00;5049704;28;45604;-70
2022/01/07 01:05:58;;;;;;;;;6.00;4.00;;;;;21.66;36.36;101419.38;5045769;28;47307;-69
2022/01/07 01:08:26;;;;;;;;;3.25;3.00;;;;;21.69;36.18;101420.88;5044529;28;45562;-70
2022/01/07 01:10:52;;;;;;;;;4.50;3.25;;;;;21.62;36.26;101428.66;5052032;28;45391;-70
2022/01/07 01:13:18;;;;;;;;;3.75;3.25;;;;;21.68;36.04;101435.94;5051539;28;45438;-69
2022/01/07 01:15:44;;;;;;;;;3.75;2.25;;;;;21.69;36.39;101426.16;5040746;28;45484;-70
2022/01/07 01:18:09;;;;;;;;;2.00;2.00;;;;;21.69;36.35;101418.22;5047745;28;45550;-69
2022/01/07 01:20:35;;;;;;;;;5.50;4.00;;;;;21.69;36.56;101418.22;5057070;28;45476;-69
2022/01/07 01:23:00;;;;;;;;;2.75;2.75;;;;;21.70;36.17;101417.25;5037952;28;45442;-70
2022/01/07 01:25:26;;;;;;;;;4.50;2.00;;;;;21.61;36.06;101397.84;5052554;28;45904;-70
2022/01/07 01:27:51;;;;;;;;;5.50;3.25;;;;;21.67;36.31;101399.88;5042567;28;45413;-69
2022/01/07 01:30:18;;;;;;;;;3.25;3.00;;;;;21.70;35.98;101401.34;5049693;28;45436;-69
2022/01/07 01:32:45;;;;;;;;;3.00;3.00;;;;;21.70;36.12;101398.72;5047825;28;45254;-69
2022/01/07 01:35:11;;;;;;;;;3.25;3.00;;;;;21.71;36.19;101397.69;5037497;28;46129;-69
2022/01/07 01:37:36;;;;;;;;;4.50;4.50;;;;;21.63;36.35;101383.47;5053375;28;45268;-69
2022/01/07 01:40:04;;;;;;;;;2.50;1.50;;;;;21.61;35.96;101368.72;5051419;28;45398;-69
2022/01/07 01:42:29;;;;;;;;;2.00;2.00;;;;;21.70;36.28;101388.91;5034231;28;48741;-70
2022/01/07 01:44:55;;;;;;;;;4.25;3.00;;;;;21.70;35.98;101382.81;5045693;28;46021;-69
2022/01/07 01:47:20;;;;;;;;;2.25;2.25;;;;;21.70;36.16;101385.47;5048774;28;45255;-69
2022/01/07 01:49:45;;;;;;;;;4.50;3.00;;;;;21.65;36.08;101380.63;5050102;28;45481;-69
2022/01/07 01:52:11;;;;;;;;;4.00;3.00;;;;;21.69;35.91;101387.28;5042726;28;45407;-70
2022/01/07 01:54:36;;;;;;;;;4.75;2.75;;;;;21.65;36.11;101385.13;5049847;28;46886;-69
2022/01/07 01:57:02;;;;;;;;;4.00;2.50;;;;;21.68;35.80;101390.91;5047175;28;45826;-69
2022/01/07 01:59:30;;;;;;;;;4.50;3.00;;;;;21.69;36.19;101399.69;5046181;28;45505;-69
2022/01/07 02:01:55;;;;;;;;;3.00;3.00;;;;;21.69;36.46;101394.41;5047827;28;45437;-69
2022/01/07 02:04:21;;;;;;;;;5.00;4.00;;;;;21.68;36.36;101388.25;5039262;28;45804;-70
2022/01/07 02:06:48;;;;;;;;;4.00;3.00;;;;;21.67;36.17;101397.22;5050603;28;45375;-69
2022/01/07 02:09:13;;;;;;;;;3.50;2.75;;;;;21.59;36.21;101382.16;5046681;28;46263;-70
2022/01/07 02:11:39;;;;;;;;;2.50;2.25;;;;;21.69;36.19;101397.03;5048068;28;45428;-70
2022/01/07 02:14:05;;;;;;;;;2.75;1.25;;;;;21.68;35.75;101398.84;5037239;28;46078;-69
2022/01/07 02:16:31;;;;;;;;;2.00;2.00;;;;;21.68;36.33;101396.22;5051232;28;45366;-70
2022/01/07 02:18:56;;;;;;;;;2.00;2.00;;;;;21.67;35.72;101389.28;5047735;28;45521;-69
2022/01/07 02:21:22;;;;;;;;;4.00;2.25;;;;;21.63;36.16;101386.13;5048515;28;45463;-70
2022/01/07 02:23:47;;;;;;;;;3.00;3.00;;;;;21.66;36.18;101395.56;5047729;28;47094;-69
2022/01/07 02:26:13;;;;;;;;;3.00;3.00;;;;;21.66;36.39;101389.41;5051310;28;45620;-69
2022/01/07 02:28:40;;;;;;;;;4.00;3.00;;;;;21.66;35.85;101386.78;5036020;28;45363;-70
2022/01/07 02:31:05;;;;;;;;;2.00;2.00;;;;;21.66;36.11;101370.88;5039548;28;45366;-69
2022/01/07 02:33:31;;;;;;;;;2.75;2.75;;;;;21.64;36.13;101371.06;5042653;28;45612;-70
2022/01/07 02:35:56;;;;;;;;;2.50;2.50;;;;;21.61;36.02;101374.03;5045192;28;45279;-69
2022/01/07 02:38:21;;;;;;;;;3.00;2.50;;;;;21.64;35.79;101368.41;5040410;28;45510;-69
2022/01/07 02:40:47;;;;;;;;;4.00;3.00;;;;;21.64;35.77;101368.41;5041257;28;45981;-70
2022/01/07 02:43:12;;;;;;;;;3.00;2.75;;;;;21.54;36.29;101367.75;5051202;28;46464;-70
2022/01/07 02:45:38;;;;;;;;;3.00;3.00;;;;;21.59;35.75;101368.91;5050460;28;45379;-69
2022/01/07 02:48:04;;;;;;;;;1.75;1.75;;;;;21.65;36.01;101382.47;5051957;28;45540;-70
2022/01/07 02:50:33;;;;;;;;;1.00;1.00;;;;;21.64;36.33;101373.72;5051944;28;45544;-69
2022/01/07 02:53:00;;;;;;;;;1.25;1.25;;;;;21.63;36.32;101378.16;5054603;28;46478;-69
2022/01/07 02:55:26;;;;;;;;;3.00;2.00;;;;;21.54;35.58;101365.09;5052472;28;45577;-70
2022/01/07 02:57:52;;;;;;;;;1.25;1.25;;;;;21.64;35.61;101376.34;5048573;28;45422;-69
2022/01/07 03:00:18;;;;;;;;;3.75;2.50;;;;;21.63;35.64;101345.56;5044917;28;45445;-69
2022/01/07 03:02:45;;;;;;;;;2.00;2.00;;;;;21.64;35.90;101357.81;5042080;28;45406;-69
2022/01/07 03:05:11;;;;;;;;;2.25;2.25;;;;;21.59;36.21;101344.25;5046808;28;45481;-70
2022/01/07 03:07:38;;;;;;;;;2.00;2.00;;;;;21.66;35.70;101362.94;5056549;28;45359;-69
2022/01/07 03:10:05;;;;;;;;;2.00;2.00;;;;;21.65;35.96;101350.72;5039944;28;45422;-70
2022/01/07 03:12:30;;;;;;;;;2.75;2.00;;;;;21.65;35.77;101354.16;5053381;28;47697;-70
2022/01/07 03:14:56;;;;;;;;;2.00;2.00;;;;;21.60;36.10;101352.00;5051019;28;45436;-69
2022/01/07 03:17:21;;;;;;;;;3.00;2.00;;;;;21.65;35.47;101359.47;5053527;28;45461;-69
2022/01/07 03:19:47;;;;;;;;;3.25;3.00;;;;;21.62;35.66;101351.88;5056873;28;45508;-69
2022/01/07 03:22:12;;;;;;;;;2.00;2.00;;;;;21.65;35.78;101348.06;5041172;28;46235;-69
2022/01/07 03:24:38;;;;;;;;;2.50;2.50;;;;;21.57;35.47;101336.44;5037459;28;45482;-69
2022/01/07 03:27:04;;;;;;;;;2.00;2.00;;;;;21.66;35.74;101341.75;5038472;28;45288;-69
2022/01/07 03:29:29;;;;;;;;;5.00;2.25;;;;;21.66;35.96;101345.22;5046932;28;45504;-69
2022/01/07 03:31:55;;;;;;;;;3.75;2.00;;;;;21.67;35.99;101341.59;5025243;28;47276;-70
2022/01/07 03:34:21;;;;;;;;;2.00;2.00;;;;;21.67;35.91;101338.13;5044239;28;45734;-70
2022/01/07 03:36:46;;;;;;;;;1.25;1.25;;;;;21.67;35.52;101338.13;5054015;28;45438;-70
2022/01/07 03:39:11;;;;;;;;;4.00;3.00;;;;;21.65;35.79;101332.16;5046414;28;45598;-69
2022/01/07 03:41:37;;;;;;;;;2.00;2.00;;;;;21.67;35.82;101346.06;5043457;28;47210;-70
2022/01/07 03:44:02;;;;;;;;;3.00;2.00;;;;;21.66;35.77;101347.03;5039604;28;46607;-69
2022/01/07 03:46:27;;;;;;;;;1.00;1.00;;;;;21.66;35.74;101344.41;5050520;28;45276;-69
2022/01/07 03:48:53;;;;;;;;;2.00;2.00;;;;;21.65;35.99;101343.56;5053839;28;45406;-70
2022/01/07 03:51:18;;;;;;;;;2.00;2.00;;;;;21.58;36.05;101332.81;5053113;28;46122;-69
2022/01/07 03:53:44;;;;;;;;;3.50;3.00;;;;;21.66;36.18;101339.09;5048315;28;45342;-69
2022/01/07 03:56:11;;;;;;;;;1.00;1.00;;;;;21.65;35.50;101327.69;5054167;28;45570;-69
2022/01/07 03:58:37;;;;;;;;;2.50;1.00;;;;;21.63;35.57;101330.50;5043628;28;45275;-69
2022/01/07 04:01:03;;;;;;;;;2.50;2.00;;;;;21.65;35.93;101342.75;5053086;28;46884;-69
2022/01/07 04:03:29;;;;;;;;;2.75;2.00;;;;;21.64;35.65;101336.63;5042642;28;45467;-69
2022/01/07 04:05:54;;;;;;;;;2.25;2.25;;;;;21.63;36.05;101330.50;5049998;28;45262;-69
2022/01/07 04:08:20;;;;;;;;;2.00;2.00;;;;;21.63;36.04;101333.16;5049364;28;45332;-69
2022/01/07 04:10:45;;;;;;;;;1.75;1.75;;;;;21.63;36.12;101322.56;5038800;28;46809;-70
2022/01/07 04:13:11;;;;;;;;;2.25;2.25;;;;;21.58;35.49;101314.28;5056487;28;45227;-70
2022/01/07 04:15:36;;;;;;;;;1.00;1.00;;;;;21.55;35.87;101317.25;5060342;28;45398;-69
2022/01/07 04:18:02;;;;;;;;;1.50;1.50;;;;;21.63;35.66;101319.06;5058096;28;45672;-69
2022/01/07 04:20:31;;;;;;;;;1.00;1.00;;;;;21.62;35.94;101315.59;5051117;28;47392;-69
2022/01/07 04:22:57;;;;;;;;;2.00;2.00;;;;;21.62;35.86;101312.16;5040371;28;45334;-70
2022/01/07 04:25:23;;;;;;;;;3.00;1.25;;;;;21.63;36.09;101303.19;5051661;28;45494;-69
2022/01/07 04:27:58;;;;;;;;;2.25;2.25;;;;;21.62;35.99;101302.34;5044039;28;45580;-69
2022/01/07 04:30:26;;;;;;;;;1.00;1.00;;;;;21.61;35.87;101302.53;5042384;28;47211;-70
2022/01/07 04:32:53;;;;;;;;;2.00;2.00;;;;;21.61;35.41;101308.66;5039571;28;45220;-69
2022/01/07 04:35:20;;;;;;;;;2.00;2.00;;;;;21.61;35.70;101313.97;5042508;28;45474;-70
2022/01/07 04:37:46;;;;;;;;;2.00;2.00;;;;;21.61;35.67;101310.47;5037228;28;45387;-69
2022/01/07 04:40:13;;;;;;;;;1.50;1.50;;;;;21.61;36.01;101316.59;5039882;28;45331;-69
2022/01/07 04:42:39;;;;;;;;;1.00;1.00;;;;;21.61;35.93;101311.31;5051970;28;45420;-69
2022/01/07 04:45:08;;;;;;;;;3.00;1.00;;;;;21.62;35.75;101315.59;5050215;28;45679;-70
2022/01/07 04:47:36;;;;;;;;;2.00;2.00;;;;;21.62;35.74;101312.94;5049683;28;45486;-69
2022/01/07 04:50:10;;;;;;;;;1.75;1.00;;;;;21.62;35.69;101306.84;5051306;28;45485;-69
2022/01/07 04:52:38;;;;;;;;;3.00;2.00;;;;;21.61;35.80;101299.88;5052766;28;46367;-69
2022/01/07 04:55:05;;;;;;;;;1.00;1.00;;;;;21.58;35.63;101306.34;5041103;28;45359;-70
2022/01/07 04:57:31;;;;;;;;;1.00;1.00;;;;;21.62;35.87;101320.88;5036382;28;45291;-69
2022/01/07 04:59:56;;;;;;;;;3.00;2.00;;;;;21.62;35.58;101318.25;5040998;28;58076;-69
2022/01/07 05:02:22;;;;;;;;;1.00;1.00;;;;;21.63;35.59;101317.25;5041281;28;45599;-69
2022/01/07 05:04:47;;;;;;;;;2.75;1.75;;;;;21.63;35.89;101334.97;5039235;28;45370;-69
2022/01/07 05:07:13;;;;;;;;;2.75;1.25;;;;;21.63;35.55;101321.72;5052368;28;45426;-69
2022/01/07 05:09:39;;;;;;;;;4.25;2.00;;;;;21.57;35.71;101309.16;5052915;28;45386;-69
2022/01/07 05:12:05;;;;;;;;;1.00;1.00;;;;;21.34;35.63;101278.06;5049638;28;45427;-69
2022/01/07 05:14:31;;;;;;;;;1.00;1.00;;;;;21.63;35.92;101319.06;5050026;28;45337;-69
2022/01/07 05:16:57;;;;;;;;;1.50;0.00;;;;;21.64;35.71;101323.41;5033742;28;45428;-69
2022/01/07 05:19:22;;;;;;;;;3.00;2.00;;;;;21.63;35.91;101321.72;5038560;28;46243;-69
2022/01/07 05:21:48;;;;;;;;;2.50;2.50;;;;;21.64;35.68;101328.69;5036287;28;45429;-69
2022/01/07 05:24:13;;;;;;;;;1.00;1.00;;;;;21.63;35.54;101333.16;5046406;28;45449;-70
2022/01/07 05:26:39;;;;;;;;;1.00;1.00;;;;;21.49;35.92;101313.44;5050140;28;45429;-70
2022/01/07 05:29:05;;;;;;;;;2.50;1.75;;;;;21.63;35.73;101334.97;5038396;28;45918;-69
2022/01/07 05:31:30;;;;;;;;;3.00;2.00;;;;;21.62;35.80;101342.06;5052892;28;45332;-70
2022/01/07 05:33:56;;;;;;;;;2.00;1.00;;;;;21.63;35.62;101356.97;5051916;28;45362;-70
2022/01/07 05:36:21;;;;;;;;;1.50;1.00;;;;;21.63;35.74;101366.75;5049540;28;45457;-69
2022/01/07 05:38:47;;;;;;;;;1.75;1.75;;;;;21.63;35.66;101364.09;5049262;28;47286;-70
2022/01/07 05:41:13;;;;;;;;;2.00;2.00;;;;;21.62;35.80;101368.56;5051979;28;45366;-70
2022/01/07 05:43:39;;;;;;;;;1.00;1.00;;;;;21.62;35.79;101363.25;5036664;28;45508;-70
2022/01/07 05:46:04;;;;;;;;;1.00;1.00;;;;;21.61;35.53;101364.28;5051355;28;45368;-70
2022/01/07 05:48:30;;;;;;;;;1.25;1.25;;;;;21.61;35.97;101358.97;5048429;28;45407;-70
2022/01/07 05:50:55;;;;;;;;;2.00;2.00;;;;;21.61;35.67;101355.50;5048902;28;45414;-69
2022/01/07 05:53:20;;;;;;;;;2.25;1.75;;;;;21.61;35.62;101363.44;5050084;28;45290;-69
2022/01/07 05:55:46;;;;;;;;;3.00;2.00;;;;;21.51;36.00;101345.06;5048207;28;45501;-70
2022/01/07 05:58:11;;;;;;;;;1.75;1.75;;;;;21.61;35.87;101342.25;5020266;28;47240;-69
2022/01/07 06:00:37;;;;;;;;;3.00;1.00;;;;;21.61;35.76;101339.59;5041417;28;45311;-69
2022/01/07 06:03:02;;;;;;;;;4.75;1.50;;;;;21.60;35.58;101341.41;5041798;28;45325;-69
2022/01/07 06:05:27;;;;;;;;;1.75;1.75;;;;;21.53;35.67;101335.13;5048807;28;45548;-69
2022/01/07 06:07:53;;;;;;;;;3.00;1.00;;;;;21.61;35.61;101342.25;5036519;28;45374;-69
2022/01/07 06:10:18;;;;;;;;;1.50;1.50;;;;;21.58;36.00;101332.81;5048118;28;45338;-70
2022/01/07 06:12:44;;;;;;;;;3.00;3.00;;;;;21.48;35.83;101311.81;5050237;28;45276;-69
2022/01/07 06:15:10;;;;;;;;;1.00;1.00;;;;;21.59;35.61;101337.13;5049303;28;45502;-69
2022/01/07 06:17:36;;;;;;;;;0.25;0.25;;;;;21.59;35.84;101333.66;5049325;28;46001;-68
2022/01/07 06:20:03;;;;;;;;;1.75;1.75;;;;;21.59;35.75;101342.44;5051100;28;45304;-69
2022/01/07 06:22:28;;;;;;;;;1.50;1.00;;;;;21.59;35.79;101342.44;5036760;28;45585;-70
2022/01/07 06:24:53;;;;;;;;;3.00;0.50;;;;;21.58;35.69;101343.41;5046319;28;45516;-69
2022/01/07 06:27:19;;;;;;;;;1.00;1.00;;;;;21.59;35.78;101349.53;5048228;28;46219;-70
2022/01/07 06:29:44;;;;;;;;;2.75;1.00;;;;;21.48;35.52;101332.16;5046099;28;45519;-70
2022/01/07 06:32:10;;;;;;;;;0.00;0.00;;;;;21.58;36.07;101343.41;5039899;28;45676;-69
2022/01/07 06:34:35;;;;;;;;;1.75;0.75;;;;;21.60;35.37;101333.47;5036684;28;45488;-70
2022/01/07 06:37:02;;;;;;;;;1.00;1.00;;;;;21.59;35.83;101342.44;5050442;28;45831;-69
2022/01/07 06:39:28;;;;;;;;;1.00;1.00;;;;;21.61;35.61;101344.91;5040067;28;45765;-70
2022/01/07 06:41:54;;;;;;;;;1.00;1.00;;;;;21.61;35.72;101348.38;5039768;28;45525;-70
2022/01/07 06:44:20;;;;;;;;;2.00;2.00;;;;;21.56;35.82;101333.97;5057957;28;45566;-70
2022/01/07 06:46:45;;;;;;;;;2.00;2.00;;;;;21.60;35.64;101328.19;5050548;28;46087;-69
2022/01/07 06:49:11;;;;;;;;;1.75;1.75;;;;;21.61;35.76;101313.97;5050454;28;45377;-70
2022/01/07 06:51:36;;;;;;;;;1.00;1.00;;;;;21.62;35.98;101320.09;5049146;28;45445;-69
2022/01/07 06:54:02;;;;;;;;;0.00;0.00;;;;;21.60;35.71;101319.41;5047271;28;45552;-70
2022/01/07 06:56:28;;;;;;;;;1.00;1.00;;;;;21.60;35.76;101319.41;5048357;28;46264;-70
2022/01/07 06:58:54;;;;;;;;;1.00;1.00;;;;;21.61;35.74;101329.84;5041015;28;45466;-70
2022/01/07 07:01:20;;;;;;;;;0.25;0.25;;;;;21.62;35.78;101330.69;5036987;28;45374;-69
2022/01/07 07:03:45;;;;;;;;;3.00;1.00;;;;;21.62;35.69;101335.97;5039553;28;45338;-69
2022/01/07 07:06:12;;;;;;;;;1.75;1.00;;;;;21.54;35.56;101306.84;5039640;28;47437;-69
2022/01/07 07:08:38;;;;;;;;;1.00;1.00;;;;;21.62;35.14;101320.09;5039875;28;45564;-70
2022/01/07 07:11:03;;;;;;;;;2.75;0.25;;;;;21.62;35.40;101309.50;5037939;28;45661;-70
2022/01/07 07:13:28;;;;;;;;;2.00;1.25;;;;;21.61;35.76;101316.59;5049677;28;45371;-70
2022/01/07 07:15:54;;;;;;;;;2.00;1.25;;;;;21.55;35.14;101306.66;5050034;28;45785;-70
2022/01/07 07:18:19;;;;;;;;;0.00;0.00;;;;;21.60;35.95;101312.28;5036884;28;45481;-72
2022/01/07 07:20:45;;;;;;;;;1.00;1.00;;;;;21.61;35.46;101307.81;5044332;28;45386;-71
2022/01/07 07:23:10;;;;;;;;;1.00;1.00;;;;;21.60;35.81;101306.16;5045486;28;45584;-70
2022/01/07 07:25:36;;;;;;;;;1.00;1.00;;;;;21.60;35.61;101312.28;5028303;28;48456;-70
2022/01/07 07:28:01;;;;;;;;;0.75;0.75;;;;;21.54;35.89;101289.16;5042220;28;45284;-72
2022/01/07 07:30:34;;;;;;;;;1.00;1.00;;;;;21.58;36.08;101295.75;5048100;28;45630;-70
2022/01/07 07:33:10;;;;;;;;;0.75;0.75;;;;;21.60;35.80;101292.94;5053573;28;45418;-71
2022/01/07 07:38:19;;;;;;;;;1.00;1.00;;;;;21.61;36.05;101303.38;5062750;28;45348;-71
2022/01/07 07:40:44;;;;;;;;;0.25;0.25;;;;;21.56;36.21;101305.69;5050288;28;45489;-71
2022/01/07 07:43:10;;;;;;;;;1.00;1.00;;;;;21.52;35.90;101313.13;5037908;28;45339;-71
2022/01/07 07:45:35;;;;;;;;;1.00;1.00;;;;;21.60;35.95;101333.47;5046147;28;46992;-71
2022/01/07 07:48:00;;;;;;;;;2.25;0.50;;;;;21.59;36.22;101337.13;5052940;28;45506;-72
2022/01/07 07:50:26;;;;;;;;;1.25;1.25;;;;;21.61;36.38;101340.44;5050668;28;45595;-72
2022/01/07 07:52:51;;;;;;;;;1.00;1.00;;;;;21.61;36.08;101350.19;5052322;28;45865;-71
2022/01/07 07:55:17;;;;;;;;;0.25;0.25;;;;;21.61;36.36;101350.19;5052833;28;45599;-71
2022/01/07 07:57:42;;;;;;;;;0.75;0.75;;;;;21.61;36.30;101350.19;5044287;28;45418;-71
2022/01/07 08:00:08;;;;;;;;;0.00;0.00;;;;;21.61;36.21;101344.91;5050350;28;47706;-70
2022/01/07 08:02:34;;;;;;;;;1.00;0.00;;;;;21.57;36.12;101340.94;5050887;28;45516;-71
2022/01/07 08:05:00;;;;;;;;;1.50;1.00;;;;;21.61;36.05;101340.44;5053034;28;46100;-72
2022/01/07 08:07:25;;;;;;;;;0.75;0.75;;;;;21.62;35.92;101338.63;5044575;28;45534;-71
2022/01/07 08:09:52;;;;;;;;;0.00;0.00;;;;;21.62;36.45;101339.44;5041866;28;45493;-71
2022/01/07 08:12:22;;;;;;;;;1.00;1.00;;;;;21.62;36.41;101347.38;5047821;28;45540;-71
2022/01/07 08:17:32;;;;;;;;;2.00;0.00;;;;;21.63;36.17;101340.25;5050723;28;45253;-71
2022/01/07 08:19:57;;;;;;;;;2.75;1.00;;;;;21.65;36.47;101348.06;5043288;28;45449;-71
2022/01/07 08:22:23;;;;;;;;;0.00;0.00;;;;;21.66;36.52;101350.53;5043393;28;45229;-71
2022/01/07 08:24:48;;;;;;;;;1.00;0.00;;;;;21.61;35.94;101347.56;5050084;28;47126;-71
2022/01/07 08:27:13;;;;;;;;;3.00;2.00;;;;;21.67;36.45;101354.00;5045083;28;45659;-70
2022/01/07 08:29:41;;;;;;;;;1.00;1.00;;;;;21.60;36.17;101348.53;5046372;28;45434;-71
2022/01/07 08:34:54;;;;;;;;;1.00;1.00;;;;;21.64;36.03;101363.13;5039234;28;45754;-70
2022/01/07 08:37:24;;;;;;;;;0.00;0.00;;;;;21.67;36.42;101372.56;5046472;28;45445;-70
2022/01/07 08:39:49;;;;;;;;;1.00;1.00;;;;;21.70;36.32;101373.03;5038460;28;45469;-70
2022/01/07 08:42:17;;;;;;;;;0.00;0.00;;;;;21.71;36.10;101360.63;5043860;28;45522;-71
2022/01/07 08:44:42;;;;;;;;;2.75;0.75;;;;;21.42;36.43;101299.22;5041841;28;45500;-70
2022/01/07 08:47:07;;;;;;;;;1.00;1.00;;;;;21.71;36.11;101356.16;5050710;28;45326;-70
2022/01/07 08:49:33;;;;;;;;;0.00;0.00;;;;;21.72;36.08;101357.81;5053597;28;45724;-70
2022/01/07 08:51:59;;;;;;;;;0.25;0.25;;;;;21.72;36.07;101360.47;5041647;28;45319;-71
2022/01/07 08:54:24;;;;;;;;;0.75;0.75;;;;;21.72;36.27;101359.63;5047646;28;46536;-71
2022/01/07 08:56:49;;;;;;;;;0.00;0.00;;;;;21.73;36.16;101374.53;5049546;28;45477;-70
2022/01/07 08:59:15;;;;;;;;;1.00;1.00;;;;;21.73;36.43;101377.16;5054633;28;45366;-70
2022/01/07 09:01:40;;;;;;;;;0.25;0.25;;;;;21.63;36.37;101367.56;5054381;28;45488;-70
2022/01/07 09:04:05;;;;;;;;;2.00;0.00;;;;;21.72;36.40;101388.78;5056715;28;47043;-71
2022/01/07 09:06:31;;;;;;;;;1.00;1.00;;;;;21.73;36.11;101398.34;5049765;28;45433;-70
2022/01/07 09:08:56;;;;;;;;;0.00;0.00;;;;;21.65;36.25;101390.44;5049471;28;45468;-70
2022/01/07 09:11:22;;;;;;;;;0.00;0.00;;;;;21.73;36.49;101390.41;5049439;28;45413;-71
2022/01/07 09:13:48;;;;;;;;;0.00;0.00;;;;;21.74;35.87;101355.00;5051834;28;46287;-70
2022/01/07 09:16:14;;;;;;;;;1.00;0.00;;;;;21.76;36.53;101368.06;5055101;28;45422;-70
2022/01/07 09:18:39;;;;;;;;;0.00;0.00;;;;;21.76;36.27;101363.59;5040469;28;46000;-70
2022/01/07 09:21:05;;;;;;;;;1.00;0.67;;;;;21.76;35.98;101366.25;5036871;28;45508;-71
2022/01/07 09:23:30;;;;;;;;;2.00;0.00;;;;;21.77;36.24;101380.31;5040997;28;46331;-71
2022/01/07 09:25:55;;;;;;;;;0.75;0.75;;;;;21.77;36.20;101375.03;5051871;28;45453;-71
2022/01/07 09:28:21;;;;;;;;;0.00;0.00;;;;;21.76;36.44;101365.41;5042939;28;45346;-70
2022/01/07 09:30:46;;;;;;;;;1.00;1.00;;;;;21.66;36.19;101350.53;5040112;28;45499;-70
2022/01/07 09:33:12;;;;;;;;;1.00;1.00;;;;;21.71;36.43;101363.28;5040828;28;46027;-71
2022/01/07 09:35:37;;;;;;;;;4.00;0.00;;;;;21.77;36.04;101370.56;5040681;28;46399;-70
2022/01/07 09:38:04;;;;;;;;;0.00;0.00;;;;;21.69;36.12;101357.31;5050628;28;45461;-71
2022/01/07 09:40:30;;;;;;;;;1.00;0.00;;;;;21.78;36.04;101388.09;5052405;28;45387;-71
2022/01/07 09:43:05;;;;;;;;;0.00;0.00;;;;;21.78;36.37;101377.50;5055695;28;45372;-71
2022/01/07 09:45:32;;;;;;;;;0.00;0.00;;;;;21.78;35.93;101379.34;5053238;28;45503;-70
2022/01/07 09:47:58;;;;;;;;;1.00;0.00;;;;;21.73;36.37;101383.28;5053620;28;45409;-70
2022/01/07 09:50:26;;;;;;;;;1.00;0.00;;;;;21.81;36.32;101397.53;5049501;28;45530;-71
2022/01/07 09:52:52;;;;;;;;;0.25;0.25;;;;;21.79;36.16;101387.13;5051393;28;46036;-70
2022/01/07 09:55:17;;;;;;;;;0.00;0.00;;;;;21.78;36.31;101374.84;5048597;28;45485;-71
2022/01/07 09:57:43;;;;;;;;;0.00;0.00;;;;;21.73;36.18;101363.94;5040863;28;45461;-70
2022/01/07 10:00:10;;;;;;;;;0.25;0.25;;;;;21.79;36.34;101365.91;5042406;28;45347;-70
2022/01/07 10:02:35;;;;;;;;;0.00;0.00;;;;;21.74;36.37;101355.00;5040120;28;45232;-71
2022/01/07 10:05:16;;;;;;;;;0.00;0.00;;;;;21.79;35.97;101365.09;5050731;28;45283;-70
2022/01/07 10:07:42;;;;;;;;;1.00;1.00;;;;;21.82;35.98;101356.81;5041266;28;45366;-70
2022/01/07 10:10:10;;;;;;;;;0.00;0.00;;;;;21.83;36.13;101355.84;5039630;28;45229;-71
2022/01/07 10:13:02;;;;;;;;;0.67;0.67;;;;;21.83;35.87;101330.16;5041249;28;46098;-70
2022/01/07 10:15:36;;;;;;;;;0.00;0.00;;;;;21.80;35.96;101325.22;5049399;28;45428;-70
2022/01/07 10:18:03;;;;;;;;;1.00;1.00;;;;;21.85;36.04;101353.84;5049332;28;45488;-71
2022/01/07 10:20:31;;;;;;;;;1.00;0.00;;;;;21.85;36.24;101370.56;5038838;28;45560;-70
2022/01/07 10:23:03;;;;;;;;;1.50;0.00;;;;;21.85;35.86;101390.94;5050906;28;46377;-70
2022/01/07 10:25:31;;;;;;;;;0.00;0.00;;;;;21.83;36.29;101379.69;5047871;28;45434;-70
2022/01/07 10:28:11;;;;;;;;;0.00;0.00;;;;;21.87;36.07;101386.31;5038674;28;45241;-71
2022/01/07 10:30:41;;;;;;;;;1.00;1.00;;;;;21.89;36.09;101394.09;5053445;28;45467;-71
2022/01/07 10:33:24;;;;;;;;;0.00;0.00;;;;;21.89;36.32;101399.38;5052829;28;47061;-71
2022/01/07 10:36:13;;;;;;;;;0.00;0.00;;;;;21.89;36.03;101400.22;5052500;28;45423;-70
2022/01/07 10:38:45;;;;;;;;;0.50;0.00;;;;;21.89;36.38;101392.28;5049223;28;45444;-70
2022/01/07 10:41:13;;;;;;;;;0.25;0.25;;;;;21.90;35.94;101395.75;5046406;28;45607;-70
2022/01/07 10:43:39;;;;;;;;;0.00;0.00;;;;;21.90;36.36;101401.06;5035461;28;46184;-71
2022/01/07 10:46:07;;;;;;;;;1.00;0.00;;;;;21.90;35.94;101388.63;5050142;28;45536;-70
2022/01/07 10:48:40;;;;;;;;;0.00;0.00;;;;;21.91;36.24;101395.56;5047818;28;45588;-71
2022/01/07 10:51:09;;;;;;;;;1.00;0.00;;;;;21.91;36.31;101392.13;5047484;28;45691;-71
2022/01/07 10:53:35;;;;;;;;;0.00;0.00;;;;;21.91;36.16;101382.34;5049666;28;45516;-71
2022/01/07 10:56:12;;;;;;;;;0.50;0.50;;;;;21.91;36.02;101384.97;5048249;28;45647;-70
2022/01/07 10:58:47;;;;;;;;;0.00;0.00;;;;;21.93;36.19;101371.59;5040958;28;45382;-70
2022/01/07 11:01:18;;;;;;;;;0.00;0.00;;;;;21.92;35.92;101351.38;5054216;28;45497;-70
2022/01/07 11:03:44;;;;;;;;;0.00;0.00;;;;;21.89;36.17;101359.66;5039417;28;46307;-70
2022/01/07 11:06:09;;;;;;;;;0.00;0.00;;;;;21.92;36.23;101354.03;5043190;28;45556;-71
2022/01/07 11:08:34;;;;;;;;;1.25;1.25;;;;;21.88;35.94;101345.59;5043409;28;45516;-70
2022/01/07 11:11:00;;;;;;;;;1.00;1.00;;;;;21.92;35.89;101351.38;5053740;28;45474;-71
2022/01/07 11:13:25;;;;;;;;;0.00;0.00;;;;;21.92;36.00;101346.06;5050507;28;46938;-71
2022/01/07 11:15:51;;;;;;;;;0.00;0.00;;;;;21.92;36.44;101336.31;5053616;28;45351;-70
2022/01/07 11:18:16;;;;;;;;;0.00;0.00;;;;;21.87;36.51;101345.72;5051184;28;46544;-71
2022/01/07 11:20:44;;;;;;;;;0.00;0.00;;;;;21.79;36.26;101343.91;5056087;28;45473;-71
2022/01/07 11:23:10;;;;;;;;;1.00;0.00;;;;;21.91;36.21;101369.09;5055985;28;46479;-71
2022/01/07 11:25:35;;;;;;;;;0.00;0.00;;;;;21.92;35.94;101386.66;5055666;28;45414;-71
2022/01/07 11:28:01;;;;;;;;;0.50;0.00;;;;;21.86;36.26;101395.22;5046523;28;45393;-70